Ogunquit, Maine
Current Conditions -  °F | °C
As of 7:15 AM on Friday 24 Oct 2014 (Local Time) from KSFM Reporting Station
Overcast Overcast  
Wind Chill: 41°   Ceiling: 1100
Heat Index: 46°   Visibility: 2.5mi
Dew Point: 43°   Wind: 13mph
Humidity: 87%   Direction: 360°N
Pressure: 29.69"   Gusts: NA
Location:  43.25°N, 70.6°W
Report Text: KSFM 241115Z AUTO 36011KT 2 1/2SM BKN011 OVC017 08/06 A2969 RMK AO1
Loading
Personal Weather Stations






























Interactive Weather Map
Tropical Storm Tracking
New forecast layout! Learn more

10-Day Weather Forecast

Advertisements
Track Severe Weather on mobile